createdAt,value
2023-05-02T00:04:00.401Z,48.84
2023-05-02T00:14:26.291Z,49.02
2023-05-02T00:24:52.508Z,48.85
2023-05-02T00:35:18.098Z,49.18
2023-05-02T00:45:46.413Z,49.48
2023-05-02T00:56:12.394Z,49.35
2023-05-02T01:06:49.266Z,49.55
2023-05-02T01:17:18.270Z,49.89
2023-05-02T01:27:57.772Z,49.91
2023-05-02T01:38:26.449Z,50.15
2023-05-02T01:48:56.341Z,50.90
2023-05-02T01:59:24.042Z,51.35
2023-05-02T02:09:50.490Z,51.41
2023-05-02T02:20:18.102Z,51.36
2023-05-02T02:30:43.885Z,52.05
2023-05-02T02:41:17.857Z,52.35
2023-05-02T02:51:52.196Z,52.74
2023-05-02T03:02:32.205Z,52.96
2023-05-02T03:12:57.966Z,52.89
2023-05-02T03:23:23.429Z,52.91
2023-05-02T03:33:49.259Z,53.01
2023-05-02T03:44:15.219Z,53.33
2023-05-02T03:54:41.830Z,53.69
2023-05-02T04:05:28.076Z,54.04
2023-05-02T04:15:53.896Z,54.52
2023-05-02T04:26:19.870Z,54.69
2023-05-02T04:36:48.010Z,54.91
2023-05-02T04:47:12.399Z,54.96
2023-05-02T04:57:40.134Z,56.08
2023-05-02T05:08:06.427Z,56.90
2023-05-02T05:18:34.530Z,57.58
2023-05-02T05:39:42.777Z,56.91
2023-05-02T05:50:11.047Z,55.72
2023-05-02T06:00:39.023Z,53.44
2023-05-02T06:11:02.986Z,51.77
2023-05-02T06:21:29.256Z,49.85
2023-05-02T06:31:58.029Z,49.15
2023-05-02T06:42:24.216Z,48.61
2023-05-02T06:52:50.157Z,48.00
2023-05-02T07:03:15.946Z,47.27
2023-05-02T07:13:41.413Z,47.20
2023-05-02T07:24:07.834Z,46.29
2023-05-02T07:34:33.985Z,45.66
2023-05-02T07:45:00.384Z,44.79
2023-05-02T07:55:27.766Z,44.48
2023-05-02T08:05:53.323Z,44.18
2023-05-02T08:16:20.117Z,43.02
2023-05-02T08:26:45.725Z,41.98
2023-05-02T08:37:13.390Z,41.80
2023-05-02T08:47:38.016Z,40.97
2023-05-02T08:58:06.199Z,40.86
2023-05-02T09:08:32.182Z,40.80
2023-05-02T09:18:59.083Z,40.82
2023-05-02T09:29:24.940Z,41.01
2023-05-02T09:40:09.445Z,41.06
2023-05-02T09:50:39.659Z,41.28
2023-05-02T10:01:06.166Z,42.04
2023-05-02T10:11:33.640Z,42.04
2023-05-02T10:22:00.611Z,41.86
2023-05-02T10:32:28.957Z,41.12
2023-05-02T10:42:55.755Z,40.51
2023-05-02T10:53:31.055Z,41.37
2023-05-02T11:04:01.564Z,41.65
2023-05-02T11:14:53.134Z,42.35
2023-05-02T11:25:36.517Z,42.46
2023-05-02T11:36:02.991Z,43.57
2023-05-02T11:46:29.123Z,44.61
2023-05-02T11:56:55.088Z,45.42
2023-05-02T12:07:20.700Z,45.75
2023-05-02T12:17:48.662Z,46.32
2023-05-02T12:28:14.887Z,46.90
2023-05-02T12:38:41.053Z,47.13
2023-05-02T12:49:09.869Z,48.36
2023-05-02T12:59:36.048Z,49.66
2023-05-02T13:10:02.654Z,49.59
2023-05-02T13:20:28.735Z,49.05
2023-05-02T13:30:54.271Z,48.92
2023-05-02T13:41:20.287Z,48.76
2023-05-02T13:51:46.431Z,48.05
2023-05-02T14:02:12.327Z,47.95
2023-05-02T14:12:38.099Z,47.42
2023-05-02T14:23:05.313Z,46.34
2023-05-02T14:33:33.231Z,45.87
2023-05-02T14:43:59.327Z,45.66
2023-05-02T14:54:30.723Z,45.75
2023-05-02T15:04:56.713Z,45.28
2023-05-02T15:15:25.185Z,45.28
2023-05-02T15:25:51.014Z,45.52
2023-05-02T15:36:17.394Z,47.14
2023-05-02T15:46:47.077Z,47.72
2023-05-02T15:57:13.338Z,49.13
2023-05-02T16:07:39.341Z,51.06
2023-05-02T16:18:05.607Z,52.24
2023-05-02T16:28:31.705Z,51.65
2023-05-02T16:38:57.457Z,50.24
2023-05-02T16:49:23.446Z,49.01
2023-05-02T16:59:49.965Z,48.72
2023-05-02T17:10:16.337Z,48.82
2023-05-02T17:20:42.426Z,48.69
2023-05-02T17:31:08.505Z,48.82
2023-05-02T17:41:36.323Z,49.65
2023-05-02T17:52:02.188Z,49.82
2023-05-02T18:02:28.507Z,50.45
2023-05-02T18:12:54.725Z,51.57
2023-05-02T18:23:20.172Z,50.89
2023-05-02T18:33:46.770Z,52.07
2023-05-02T18:44:13.327Z,52.68
2023-05-02T18:54:39.284Z,53.06
2023-05-02T19:05:08.207Z,53.29
2023-05-02T19:15:36.099Z,54.03
2023-05-02T19:26:02.002Z,54.30
2023-05-02T19:36:28.640Z,54.54
2023-05-02T19:46:54.381Z,55.03
2023-05-02T19:57:20.543Z,55.92
2023-05-02T20:07:46.589Z,56.37
2023-05-02T20:18:12.147Z,56.38
2023-05-02T20:28:38.889Z,56.49
2023-05-02T20:39:07.555Z,56.89
2023-05-02T20:49:34.880Z,57.43
2023-05-02T21:00:00.913Z,58.08
2023-05-02T21:10:28.130Z,58.52
2023-05-02T21:20:53.758Z,58.69
2023-05-02T21:31:19.917Z,59.10
2023-05-02T21:41:45.622Z,59.31
2023-05-02T21:52:11.354Z,59.66
2023-05-02T22:02:37.144Z,59.80
2023-05-02T22:13:03.622Z,60.14
2023-05-02T22:23:31.846Z,60.39
2023-05-02T22:33:57.841Z,60.80
2023-05-02T22:44:23.926Z,61.02
2023-05-02T22:54:49.569Z,61.13
2023-05-02T23:05:15.583Z,61.35
2023-05-02T23:15:41.764Z,61.53
2023-05-02T23:26:10.522Z,61.66
2023-05-02T23:36:36.663Z,62.07
2023-05-02T23:47:02.862Z,62.31
2023-05-02T23:57:30.220Z,62.38
